createdAt,value
2022-08-24T00:00:46.419Z,67.50
2022-08-24T00:01:46.480Z,67.60
2022-08-24T00:02:46.567Z,67.80
2022-08-24T00:03:46.352Z,67.50
2022-08-24T00:04:46.758Z,67.40
2022-08-24T00:05:46.318Z,67.40
2022-08-24T00:06:46.310Z,67.70
2022-08-24T00:07:46.392Z,67.50
2022-08-24T00:08:46.313Z,67.30
2022-08-24T00:09:49.560Z,67.60
2022-08-24T00:10:46.301Z,67.60
2022-08-24T00:11:46.296Z,67.60
2022-08-24T00:12:46.270Z,67.40
2022-08-24T00:13:46.249Z,67.90
2022-08-24T00:14:50.158Z,68.01
2022-08-24T00:15:46.200Z,68.41
2022-08-24T00:16:46.226Z,68.30
2022-08-24T00:17:46.203Z,66.99
2022-08-24T00:18:46.168Z,66.49
2022-08-24T00:19:46.174Z,66.39
2022-08-24T00:20:46.130Z,67.40
2022-08-24T00:21:46.181Z,67.60
2022-08-24T00:22:46.110Z,68.41
2022-08-24T00:23:46.115Z,68.21
2022-08-24T00:24:46.098Z,67.60
2022-08-24T00:25:46.078Z,67.19
2022-08-24T00:26:46.069Z,68.01
2022-08-24T00:27:46.069Z,68.21
2022-08-24T00:28:46.039Z,68.21
2022-08-24T00:29:46.067Z,67.70
2022-08-24T00:30:46.007Z,67.40
2022-08-24T00:31:46.084Z,68.01
2022-08-24T00:32:46.007Z,68.21
2022-08-24T00:33:45.979Z,67.90
2022-08-24T00:34:58.332Z,67.70
2022-08-24T00:35:46.980Z,67.50
2022-08-24T00:36:45.941Z,66.99
2022-08-24T00:37:45.970Z,67.60
2022-08-24T00:38:45.918Z,68.24
2022-08-24T00:39:46.009Z,68.24
2022-08-24T00:40:45.915Z,68.04
2022-08-24T00:41:45.894Z,67.63
2022-08-24T00:42:45.864Z,67.53
2022-08-24T00:43:45.881Z,67.43
2022-08-24T00:44:45.892Z,67.33
2022-08-24T00:45:45.875Z,67.23
2022-08-24T00:46:45.805Z,67.43
2022-08-24T00:47:57.622Z,67.53
2022-08-24T00:48:46.766Z,67.83
2022-08-24T00:49:45.805Z,68.13
2022-08-24T00:50:45.754Z,68.04
2022-08-24T00:51:45.864Z,67.93
2022-08-24T00:52:45.714Z,68.13
2022-08-24T00:53:45.779Z,67.93
2022-08-24T00:54:46.650Z,68.33
2022-08-24T00:55:45.692Z,68.64
2022-08-24T00:56:45.672Z,68.54
2022-08-24T00:57:49.631Z,67.63
2022-08-24T00:58:45.642Z,67.93
2022-08-24T00:59:45.762Z,67.83
2022-08-24T01:00:45.642Z,67.83
2022-08-24T01:01:46.462Z,67.33
2022-08-24T01:02:45.685Z,67.43
2022-08-24T01:03:45.610Z,67.63
2022-08-24T01:04:45.614Z,67.43
2022-08-24T01:05:46.036Z,67.33
2022-08-24T01:06:45.584Z,67.53
2022-08-24T01:07:45.568Z,67.33
2022-08-24T01:08:45.633Z,67.53
2022-08-24T01:09:45.528Z,67.93
2022-08-24T01:10:45.511Z,68.13
2022-08-24T01:11:45.520Z,68.44
2022-08-24T01:12:52.228Z,68.13
2022-08-24T01:13:46.458Z,67.76
2022-08-24T01:14:45.482Z,68.07
2022-08-24T01:15:45.429Z,68.37
2022-08-24T01:16:45.415Z,67.97
2022-08-24T01:17:49.227Z,67.97
2022-08-24T01:18:45.402Z,68.17
2022-08-24T01:19:45.387Z,68.07
2022-08-24T01:20:45.370Z,68.27
2022-08-24T01:21:45.451Z,68.67
2022-08-24T01:22:45.347Z,68.98
2022-08-24T01:23:45.326Z,68.77
2022-08-24T01:24:45.325Z,68.57
2022-08-24T01:25:45.312Z,68.27
2022-08-24T01:26:45.296Z,68.17
2022-08-24T01:27:45.286Z,68.67
2022-08-24T01:28:45.279Z,68.67
2022-08-24T01:29:49.121Z,68.57
2022-08-24T01:30:45.233Z,68.47
2022-08-24T01:31:45.334Z,68.27
2022-08-24T01:32:45.228Z,68.47
2022-08-24T01:33:45.187Z,68.37
2022-08-24T01:34:45.252Z,68.77
2022-08-24T01:35:45.177Z,68.57
2022-08-24T01:36:45.152Z,68.80
2022-08-24T01:37:45.167Z,69.01
2022-08-24T01:38:45.132Z,68.71
2022-08-24T01:39:45.212Z,68.80
2022-08-24T01:40:45.140Z,69.21
2022-08-24T01:41:45.139Z,69.42
2022-08-24T01:42:45.110Z,69.21
2022-08-24T01:43:45.079Z,69.01
2022-08-24T01:44:45.061Z,69.11
2022-08-24T01:45:45.032Z,69.01
2022-08-24T01:46:45.055Z,69.31
2022-08-24T01:47:45.047Z,69.11
2022-08-24T01:48:44.990Z,68.71
2022-08-24T01:49:44.980Z,68.80
2022-08-24T01:50:45.724Z,69.01
2022-08-24T01:51:44.980Z,69.21
2022-08-24T01:53:04.503Z,69.31
2022-08-24T01:53:45.951Z,69.01
2022-08-24T01:54:44.929Z,68.91
2022-08-24T01:55:44.929Z,69.01
2022-08-24T01:56:44.905Z,69.01
2022-08-24T01:57:44.901Z,68.91
2022-08-24T01:58:44.940Z,68.91
2022-08-24T01:59:44.857Z,68.80
2022-08-24T02:00:44.885Z,68.60
2022-08-24T02:01:44.892Z,68.91
2022-08-24T02:02:44.896Z,68.51
2022-08-24T02:03:44.801Z,69.11
2022-08-24T02:04:44.894Z,69.51
2022-08-24T02:05:44.778Z,68.91
2022-08-24T02:06:44.760Z,69.21
2022-08-24T02:07:44.781Z,69.42
2022-08-24T02:08:44.726Z,69.51
2022-08-24T02:09:44.739Z,69.31
2022-08-24T02:10:48.767Z,69.31
2022-08-24T02:11:45.697Z,69.11
2022-08-24T02:12:44.737Z,69.31
2022-08-24T02:13:44.696Z,68.40
2022-08-24T02:14:44.677Z,69.01
2022-08-24T02:15:44.701Z,68.91
2022-08-24T02:16:45.303Z,69.31
2022-08-24T02:17:44.625Z,69.11
2022-08-24T02:18:44.671Z,68.91
2022-08-24T02:19:44.588Z,68.91
2022-08-24T02:20:44.605Z,68.91
2022-08-24T02:21:44.574Z,69.01
2022-08-24T02:22:44.619Z,68.80
2022-08-24T02:23:44.564Z,68.63
2022-08-24T02:24:44.587Z,68.60
2022-08-24T02:25:44.513Z,68.54
2022-08-24T02:26:44.506Z,68.91
2022-08-24T02:27:44.517Z,69.01
2022-08-24T02:28:44.505Z,69.04
2022-08-24T02:29:44.587Z,68.63
2022-08-24T02:30:44.510Z,68.54
2022-08-24T02:31:44.472Z,68.43
2022-08-24T02:32:44.449Z,68.13
2022-08-24T02:33:44.483Z,67.93
2022-08-24T02:34:44.411Z,68.54
2022-08-24T02:35:44.407Z,68.43
2022-08-24T02:36:44.386Z,68.54
2022-08-24T02:37:44.382Z,68.33
2022-08-24T02:38:44.376Z,68.54
2022-08-24T02:39:44.368Z,68.54
2022-08-24T02:40:44.329Z,68.23
2022-08-24T02:41:44.468Z,68.03
2022-08-24T02:42:44.328Z,68.63
2022-08-24T02:43:44.298Z,68.74
2022-08-24T02:44:44.359Z,69.04
2022-08-24T02:45:48.204Z,69.14
2022-08-24T02:46:45.953Z,68.94
2022-08-24T02:47:44.267Z,68.84
2022-08-24T02:48:44.961Z,68.74
2022-08-24T02:49:44.197Z,68.74
2022-08-24T02:50:44.367Z,68.54
2022-08-24T02:51:45.201Z,68.74
2022-08-24T02:52:44.208Z,69.34
2022-08-24T02:53:44.176Z,69.45
2022-08-24T02:54:44.197Z,69.55
2022-08-24T02:55:44.126Z,69.04
2022-08-24T02:56:44.149Z,69.18
2022-08-24T02:57:44.115Z,68.97
2022-08-24T02:58:44.104Z,68.97
2022-08-24T02:59:44.095Z,69.18
2022-08-24T03:00:44.124Z,69.68
2022-08-24T03:01:44.887Z,69.48
2022-08-24T03:02:44.057Z,69.78
2022-08-24T03:03:44.025Z,69.58
2022-08-24T03:04:44.025Z,69.48
2022-08-24T03:05:45.135Z,69.78
2022-08-24T03:06:43.996Z,69.98
2022-08-24T03:07:44.045Z,69.68
2022-08-24T03:08:44.540Z,69.89
2022-08-24T03:09:45.029Z,70.09
2022-08-24T03:10:43.934Z,69.89
2022-08-24T03:11:45.540Z,69.89
2022-08-24T03:12:43.947Z,69.89
2022-08-24T03:13:43.918Z,70.39
2022-08-24T03:14:43.892Z,69.89
2022-08-24T03:15:43.970Z,69.81
2022-08-24T03:16:43.872Z,70.02
2022-08-24T03:17:43.880Z,69.81
2022-08-24T03:18:43.873Z,69.92
2022-08-24T03:19:43.870Z,70.42
2022-08-24T03:20:43.828Z,70.52
2022-08-24T03:21:43.800Z,70.32
2022-08-24T03:22:43.844Z,70.22
2022-08-24T03:23:43.798Z,70.32
2022-08-24T03:24:43.761Z,70.12
2022-08-24T03:25:43.799Z,70.22
2022-08-24T03:26:44.456Z,70.42
2022-08-24T03:27:43.789Z,70.22
2022-08-24T03:28:44.613Z,70.32
2022-08-24T03:29:43.808Z,70.93
2022-08-24T03:30:46.720Z,70.83
2022-08-24T03:31:43.678Z,70.83
2022-08-24T03:32:43.729Z,70.83
2022-08-24T03:33:43.657Z,70.83
2022-08-24T03:34:43.637Z,70.52
2022-08-24T03:35:43.627Z,70.36
2022-08-24T03:36:43.646Z,70.12
2022-08-24T03:37:43.670Z,70.36
2022-08-24T03:38:43.576Z,70.56
2022-08-24T03:39:43.727Z,70.65
2022-08-24T03:40:43.613Z,69.95
2022-08-24T03:41:43.633Z,70.36
2022-08-24T03:42:43.573Z,70.25
2022-08-24T03:43:43.589Z,70.36
2022-08-24T03:44:43.527Z,70.15
2022-08-24T03:45:43.655Z,70.36
2022-08-24T03:46:43.484Z,69.95
2022-08-24T03:47:43.660Z,70.15
2022-08-24T03:48:43.524Z,70.36
2022-08-24T03:49:43.504Z,69.95
2022-08-24T03:50:43.507Z,70.15
2022-08-24T03:51:43.425Z,69.95
2022-08-24T03:52:43.455Z,69.85
2022-08-24T03:53:43.550Z,69.95
2022-08-24T03:54:43.452Z,70.56
2022-08-24T03:55:43.437Z,70.56
2022-08-24T03:56:43.363Z,70.45
2022-08-24T03:57:43.430Z,70.65
2022-08-24T03:58:43.363Z,70.96
2022-08-24T03:59:46.162Z,71.16
2022-08-24T04:00:43.411Z,70.86
2022-08-24T04:01:43.357Z,70.65
2022-08-24T04:02:43.367Z,70.65
2022-08-24T04:03:47.142Z,70.45
2022-08-24T04:04:43.269Z,70.65
2022-08-24T04:05:43.268Z,70.96
2022-08-24T04:06:43.247Z,70.65
2022-08-24T04:07:43.271Z,70.86
2022-08-24T04:08:43.270Z,70.76
2022-08-24T04:09:43.208Z,71.16
2022-08-24T04:10:43.229Z,71.16
2022-08-24T04:11:43.189Z,71.50
2022-08-24T04:12:43.200Z,71.26
2022-08-24T04:13:43.160Z,71.00
2022-08-24T04:14:43.130Z,70.59
2022-08-24T04:15:43.211Z,71.00
2022-08-24T04:16:43.191Z,70.89
2022-08-24T04:17:43.139Z,71.00
2022-08-24T04:18:43.117Z,71.30
2022-08-24T04:19:43.133Z,71.09
2022-08-24T04:20:43.069Z,70.69
2022-08-24T04:21:43.070Z,71.09
2022-08-24T04:22:43.039Z,70.79
2022-08-24T04:23:46.908Z,71.09
2022-08-24T04:24:43.036Z,71.50
2022-08-24T04:25:43.007Z,71.50
2022-08-24T04:26:45.808Z,71.20
2022-08-24T04:27:43.006Z,71.30
2022-08-24T04:28:42.957Z,71.30
2022-08-24T04:29:42.961Z,71.50
2022-08-24T04:30:43.067Z,71.70
2022-08-24T04:31:43.089Z,71.50
2022-08-24T04:32:42.914Z,71.70
2022-08-24T04:33:42.896Z,71.50
2022-08-24T04:34:42.891Z,71.70
2022-08-24T04:35:42.899Z,71.80
2022-08-24T04:36:42.864Z,71.60
2022-08-24T04:37:42.877Z,71.00
2022-08-24T04:38:42.866Z,71.00
2022-08-24T04:39:42.907Z,70.89
2022-08-24T04:40:42.846Z,71.00
2022-08-24T04:41:42.894Z,71.09
2022-08-24T04:42:42.783Z,71.50
2022-08-24T04:43:42.783Z,71.60
2022-08-24T04:44:42.782Z,72.01
2022-08-24T04:45:42.801Z,72.21
2022-08-24T04:46:42.752Z,72.21
2022-08-24T04:47:42.743Z,71.80
2022-08-24T04:48:42.722Z,72.31
2022-08-24T04:49:42.730Z,72.31
2022-08-24T04:50:42.753Z,72.11
2022-08-24T04:51:42.683Z,72.52
2022-08-24T04:52:42.682Z,72.72
2022-08-24T04:53:42.663Z,72.81
2022-08-24T04:54:42.650Z,72.92
2022-08-24T04:55:42.631Z,73.02
2022-08-24T04:56:46.371Z,72.81
2022-08-24T04:57:42.600Z,72.92
2022-08-24T04:58:42.639Z,73.02
2022-08-24T04:59:42.581Z,72.81
2022-08-24T05:00:42.677Z,72.92
2022-08-24T05:01:42.599Z,72.92
2022-08-24T05:02:45.054Z,73.43
2022-08-24T05:03:42.534Z,73.53
2022-08-24T05:04:42.621Z,73.83
2022-08-24T05:05:42.493Z,73.73
2022-08-24T05:06:42.509Z,73.53
2022-08-24T05:07:42.468Z,72.61
2022-08-24T05:08:42.511Z,73.02
2022-08-24T05:09:42.487Z,73.32
2022-08-24T05:10:42.506Z,72.41
2022-08-24T05:11:42.418Z,72.52
2022-08-24T05:12:43.480Z,72.28
2022-08-24T05:13:46.280Z,72.48
2022-08-24T05:14:42.385Z,72.38
2022-08-24T05:15:42.366Z,72.28
2022-08-24T05:16:45.761Z,72.48
2022-08-24T05:17:46.748Z,73.09
2022-08-24T05:18:43.376Z,72.68
2022-08-24T05:19:42.313Z,72.99
2022-08-24T05:20:42.335Z,72.78
2022-08-24T05:21:42.294Z,72.68
2022-08-24T05:22:42.294Z,73.29
2022-08-24T05:23:43.432Z,74.71
2022-08-24T05:24:42.274Z,74.40
2022-08-24T05:25:42.246Z,74.40
2022-08-24T05:26:46.316Z,74.60
2022-08-24T05:27:42.226Z,74.71
2022-08-24T05:28:42.224Z,74.51
2022-08-24T05:29:42.213Z,74.81
2022-08-24T05:30:42.982Z,75.21
2022-08-24T05:31:42.252Z,75.38
2022-08-24T05:32:42.162Z,75.28
2022-08-24T05:33:42.172Z,74.77
2022-08-24T05:34:42.167Z,74.47
2022-08-24T05:35:43.768Z,74.07
2022-08-24T05:36:42.130Z,74.27
2022-08-24T05:37:42.102Z,73.76
2022-08-24T05:38:42.100Z,73.46
2022-08-24T05:39:42.191Z,73.86
2022-08-24T05:40:42.090Z,73.76
2022-08-24T05:41:44.373Z,73.56
2022-08-24T05:42:46.060Z,73.72
2022-08-24T05:43:42.058Z,73.63
2022-08-24T05:44:42.028Z,73.52
2022-08-24T05:45:42.021Z,73.12
2022-08-24T05:46:42.054Z,73.32
2022-08-24T05:47:41.997Z,74.13
2022-08-24T05:48:41.987Z,73.63
2022-08-24T05:49:41.968Z,74.50
2022-08-24T05:50:42.001Z,74.30
2022-08-24T05:51:41.966Z,73.90
2022-08-24T05:52:41.907Z,73.90
2022-08-24T05:53:41.907Z,74.30
2022-08-24T05:54:41.897Z,74.19
2022-08-24T05:55:41.925Z,73.90
2022-08-24T05:56:41.873Z,73.69
2022-08-24T05:57:41.853Z,73.25
2022-08-24T05:58:41.871Z,73.46
2022-08-24T05:59:41.880Z,73.75
2022-08-24T06:00:41.835Z,73.96
2022-08-24T06:01:45.140Z,73.75
2022-08-24T06:02:41.982Z,73.46
2022-08-24T06:03:41.765Z,73.05
2022-08-24T06:04:41.764Z,73.66
2022-08-24T06:05:41.777Z,73.82
2022-08-24T06:06:41.745Z,73.52
2022-08-24T06:07:41.760Z,73.52
2022-08-24T06:08:41.996Z,73.62
2022-08-24T06:09:41.717Z,73.72
2022-08-24T06:10:41.713Z,73.72
2022-08-24T06:11:41.674Z,73.62
2022-08-24T06:12:41.699Z,73.42
2022-08-24T06:13:41.721Z,73.49
2022-08-24T06:14:41.640Z,73.49
2022-08-24T06:15:41.613Z,73.69
2022-08-24T06:16:41.637Z,73.79
2022-08-24T06:17:41.678Z,73.69
2022-08-24T06:18:41.575Z,73.58
2022-08-24T06:19:41.574Z,73.49
2022-08-24T06:20:41.576Z,73.99
2022-08-24T06:21:41.571Z,74.60
2022-08-24T06:22:41.533Z,74.36
2022-08-24T06:23:41.519Z,73.65
2022-08-24T06:24:41.521Z,73.65
2022-08-24T06:25:41.481Z,73.85
2022-08-24T06:26:41.473Z,73.85
2022-08-24T06:27:41.499Z,73.96
2022-08-24T06:28:41.446Z,74.36
2022-08-24T06:29:41.448Z,74.52
2022-08-24T06:30:41.449Z,74.43
2022-08-24T06:31:42.011Z,74.73
2022-08-24T06:32:41.471Z,74.63
2022-08-24T06:33:41.372Z,73.72
2022-08-24T06:34:41.370Z,73.32
2022-08-24T06:35:46.630Z,73.42
2022-08-24T06:36:42.408Z,72.61
2022-08-24T06:37:41.328Z,72.20
2022-08-24T06:38:41.328Z,73.01
2022-08-24T06:39:41.298Z,72.67
2022-08-24T06:40:41.316Z,70.97
2022-08-24T06:41:41.297Z,70.66
2022-08-24T06:42:41.310Z,70.36
2022-08-24T06:43:41.246Z,70.86
2022-08-24T06:44:41.257Z,70.83
2022-08-24T06:45:41.266Z,71.13
2022-08-24T06:46:41.295Z,71.13
2022-08-24T06:47:41.188Z,71.03
2022-08-24T06:48:41.202Z,71.64
2022-08-24T06:49:41.174Z,71.73
2022-08-24T06:50:41.159Z,71.50
2022-08-24T06:51:41.142Z,71.60
2022-08-24T06:52:41.187Z,72.11
2022-08-24T06:53:41.127Z,71.91
2022-08-24T06:54:41.165Z,71.50
2022-08-24T06:55:41.105Z,71.91
2022-08-24T06:56:41.124Z,71.40
2022-08-24T06:57:41.084Z,70.79
2022-08-24T06:58:41.074Z,71.30
2022-08-24T06:59:41.068Z,71.60
2022-08-24T07:00:41.046Z,71.60
2022-08-24T07:01:41.043Z,71.16
2022-08-24T07:02:41.052Z,71.16
2022-08-24T07:03:41.016Z,69.65
2022-08-24T07:04:41.014Z,69.15
2022-08-24T07:05:40.976Z,69.05
2022-08-24T07:06:40.966Z,69.05
2022-08-24T07:07:40.971Z,69.15
2022-08-24T07:08:40.942Z,69.25
2022-08-24T07:09:40.962Z,69.96
2022-08-24T07:10:40.901Z,70.32
2022-08-24T07:11:40.923Z,69.72
2022-08-24T07:12:40.890Z,69.42
2022-08-24T07:13:40.881Z,69.22
2022-08-24T07:14:40.913Z,69.42
2022-08-24T07:15:40.882Z,68.21
2022-08-24T07:16:40.882Z,68.28
2022-08-24T07:17:40.812Z,68.88
2022-08-24T07:18:41.230Z,68.48
2022-08-24T07:19:40.830Z,68.08
2022-08-24T07:20:40.800Z,67.68
2022-08-24T07:21:40.789Z,68.08
2022-08-24T07:22:40.870Z,67.94
2022-08-24T07:23:42.494Z,68.05
2022-08-24T07:24:40.883Z,68.55
2022-08-24T07:25:43.731Z,67.55
2022-08-24T07:26:41.718Z,68.05
2022-08-24T07:27:40.697Z,68.05
2022-08-24T07:28:40.896Z,67.01
2022-08-24T07:29:50.723Z,67.61
2022-08-24T07:30:41.647Z,67.21
2022-08-24T07:31:40.728Z,66.41
2022-08-24T07:32:40.627Z,66.00
2022-08-24T07:33:40.658Z,67.11
2022-08-24T07:34:40.618Z,67.08
2022-08-24T07:35:40.622Z,67.08
2022-08-24T07:36:44.289Z,67.28
2022-08-24T07:37:41.656Z,66.08
2022-08-24T07:38:40.565Z,65.67
2022-08-24T07:39:40.545Z,65.04
2022-08-24T07:41:05.216Z,64.94
2022-08-24T07:42:12.279Z,65.74
2022-08-24T07:42:41.505Z,65.74
2022-08-24T07:43:43.042Z,66.35
2022-08-24T07:44:40.499Z,65.84
2022-08-24T07:45:40.462Z,66.14
2022-08-24T07:46:40.549Z,66.61
2022-08-24T07:47:46.115Z,67.02
2022-08-24T07:48:41.454Z,67.11
2022-08-24T07:49:40.412Z,66.31
2022-08-24T07:50:40.433Z,66.11
2022-08-24T07:51:40.827Z,66.21
2022-08-24T07:52:40.433Z,66.41
2022-08-24T07:53:53.038Z,66.31
2022-08-24T07:54:41.361Z,66.41
2022-08-24T07:55:45.846Z,66.41
2022-08-24T07:56:41.361Z,65.98
2022-08-24T07:57:40.371Z,66.58
2022-08-24T07:58:40.379Z,66.18
2022-08-24T07:59:40.291Z,65.78
2022-08-24T08:00:40.271Z,66.08
2022-08-24T08:01:40.417Z,65.48
2022-08-24T08:02:40.316Z,66.65
2022-08-24T08:03:40.230Z,66.85
2022-08-24T08:04:40.232Z,65.45
2022-08-24T08:05:40.217Z,64.95
2022-08-24T08:06:40.190Z,65.35
2022-08-24T08:07:40.199Z,65.05
2022-08-24T08:08:40.200Z,65.62
2022-08-24T08:09:40.226Z,64.72
2022-08-24T08:10:40.186Z,66.02
2022-08-24T08:11:40.270Z,64.81
2022-08-24T08:12:40.138Z,64.92
2022-08-24T08:14:40.122Z,64.18
2022-08-24T08:15:40.200Z,64.69
2022-08-24T08:16:40.077Z,64.59
2022-08-24T08:17:40.058Z,64.69
2022-08-24T08:18:40.086Z,63.56
2022-08-24T08:19:40.051Z,63.85
2022-08-24T08:20:40.035Z,63.56
2022-08-24T08:21:39.998Z,63.75
2022-08-24T08:22:40.244Z,64.45
2022-08-24T08:23:39.999Z,63.82
2022-08-24T08:24:40.067Z,64.03
2022-08-24T08:25:41.612Z,64.52
2022-08-24T08:26:39.952Z,64.72
2022-08-24T08:27:39.956Z,63.72
2022-08-24T08:28:40.087Z,64.42
2022-08-24T08:29:39.999Z,64.42
2022-08-24T08:30:39.952Z,63.79
2022-08-24T08:31:39.973Z,63.89
2022-08-24T08:32:39.892Z,63.89
2022-08-24T08:33:39.982Z,63.39
2022-08-24T08:34:39.870Z,62.99
2022-08-24T08:35:39.936Z,62.19
2022-08-24T08:36:39.844Z,62.70
2022-08-24T08:37:39.882Z,61.79
2022-08-24T08:38:39.827Z,61.36
2022-08-24T08:39:39.834Z,61.87
2022-08-24T08:40:39.778Z,62.06
2022-08-24T08:41:39.752Z,62.66
2022-08-24T08:42:39.752Z,63.56
2022-08-24T08:43:39.721Z,63.66
2022-08-24T08:44:39.750Z,64.03
2022-08-24T08:45:39.748Z,63.73
2022-08-24T08:46:40.937Z,62.43
2022-08-24T08:47:39.671Z,61.63
2022-08-24T08:48:39.670Z,62.04
2022-08-24T08:49:39.705Z,62.04
2022-08-24T08:50:39.680Z,62.23
2022-08-24T08:51:39.660Z,63.33
2022-08-24T08:52:39.621Z,63.20
2022-08-24T08:53:39.619Z,61.80
2022-08-24T08:54:39.601Z,61.60
2022-08-24T08:55:39.595Z,62.30
2022-08-24T08:56:39.569Z,62.40
2022-08-24T08:57:39.600Z,61.10
2022-08-24T08:58:39.540Z,61.00
2022-08-24T08:59:39.577Z,61.38
2022-08-24T09:00:39.584Z,61.77
2022-08-24T09:01:44.177Z,61.57
2022-08-24T09:02:40.493Z,61.77
2022-08-24T09:03:39.547Z,62.87
2022-08-24T09:04:39.522Z,61.98
2022-08-24T09:05:39.493Z,61.98
2022-08-24T09:06:39.437Z,61.44
2022-08-24T09:07:39.427Z,59.85
2022-08-24T09:08:39.462Z,60.25
2022-08-24T09:09:39.414Z,59.75
2022-08-24T09:10:43.243Z,60.85
2022-08-24T09:11:39.366Z,61.55
2022-08-24T09:12:39.375Z,61.52
2022-08-24T09:13:39.398Z,60.02
2022-08-24T09:14:39.365Z,60.92
2022-08-24T09:15:39.315Z,59.62
2022-08-24T09:16:39.581Z,59.62
2022-08-24T09:17:39.304Z,60.02
2022-08-24T09:18:39.334Z,60.19
2022-08-24T09:19:39.426Z,59.39
2022-08-24T09:20:39.304Z,59.19
2022-08-24T09:21:39.321Z,60.29
2022-08-24T09:22:39.251Z,59.59
2022-08-24T09:23:39.235Z,58.50
2022-08-24T09:24:39.267Z,56.68
2022-08-24T09:25:39.223Z,55.98
2022-08-24T09:26:39.183Z,55.28
2022-08-24T09:27:39.249Z,55.85
2022-08-24T09:28:39.204Z,57.84
2022-08-24T09:29:41.400Z,57.24
2022-08-24T09:30:39.187Z,58.34
2022-08-24T09:31:40.173Z,55.95
2022-08-24T09:32:39.276Z,56.23
2022-08-24T09:33:39.127Z,55.53
2022-08-24T09:34:39.120Z,55.43
2022-08-24T09:35:39.137Z,56.23
2022-08-24T09:36:39.058Z,57.12
2022-08-24T09:37:43.370Z,56.23
2022-08-24T09:38:39.064Z,55.80
2022-08-24T09:39:39.071Z,56.30
2022-08-24T09:40:39.047Z,56.20
2022-08-24T09:41:39.002Z,55.80
2022-08-24T09:42:39.022Z,56.70
2022-08-24T09:43:38.990Z,56.00
2022-08-24T09:44:38.990Z,56.30
2022-08-24T09:45:39.058Z,56.40
2022-08-24T09:46:38.960Z,57.09
2022-08-24T09:47:38.931Z,55.60
2022-08-24T09:48:38.918Z,54.97
2022-08-24T09:49:38.989Z,54.88
2022-08-24T09:50:38.904Z,56.67
2022-08-24T09:51:38.887Z,55.38
2022-08-24T09:52:38.886Z,55.67
2022-08-24T09:53:38.868Z,53.78
2022-08-24T09:54:39.536Z,53.88
2022-08-24T09:55:38.857Z,53.26
2022-08-24T09:56:38.825Z,54.25
2022-08-24T09:58:39.820Z,54.85
2022-08-24T09:59:38.978Z,53.66
2022-08-24T10:00:38.786Z,52.24
2022-08-24T10:01:38.841Z,52.24
2022-08-24T10:02:38.832Z,51.75
2022-08-24T10:03:38.892Z,51.54
2022-08-24T10:04:38.838Z,53.61
2022-08-24T10:05:38.792Z,51.42
2022-08-24T10:06:38.789Z,51.52
2022-08-24T10:07:39.392Z,51.92
2022-08-24T10:08:38.665Z,51.32
2022-08-24T10:09:38.674Z,51.23
2022-08-24T10:10:38.800Z,48.94
2022-08-24T10:11:38.671Z,49.54
2022-08-24T10:12:38.613Z,50.01
2022-08-24T10:13:38.671Z,49.91
2022-08-24T10:14:38.683Z,49.41
2022-08-24T10:15:38.572Z,49.21
2022-08-24T10:16:38.684Z,48.42
2022-08-24T10:17:38.582Z,49.29
2022-08-24T10:18:38.547Z,49.39
2022-08-24T10:19:38.558Z,48.60
2022-08-24T10:20:38.531Z,48.40
2022-08-24T10:21:38.531Z,48.10
2022-08-24T10:22:38.475Z,48.00
2022-08-24T10:23:38.496Z,47.80
2022-08-24T10:24:38.460Z,47.19
2022-08-24T10:25:38.450Z,47.98
2022-08-24T10:26:38.538Z,48.47
2022-08-24T10:27:38.430Z,49.46
2022-08-24T10:28:38.407Z,49.76
2022-08-24T10:29:38.442Z,49.27
2022-08-24T10:30:38.390Z,50.16
2022-08-24T10:31:38.411Z,49.66
2022-08-24T10:32:38.418Z,48.97
2022-08-24T10:33:38.350Z,47.31
2022-08-24T10:34:38.446Z,48.38
2022-08-24T10:35:38.317Z,49.66
2022-08-24T10:36:38.321Z,47.98
2022-08-24T10:37:42.212Z,49.96
2022-08-24T10:38:38.469Z,47.58
2022-08-24T10:39:39.888Z,47.28
2022-08-24T10:40:38.667Z,47.78
2022-08-24T10:41:38.734Z,48.38
2022-08-24T10:42:38.391Z,50.46
2022-08-24T10:43:41.987Z,50.26
2022-08-24T10:44:38.268Z,50.36
2022-08-24T10:45:38.532Z,49.76
2022-08-24T10:46:38.179Z,48.67
2022-08-24T10:47:38.327Z,49.07
2022-08-24T10:48:38.242Z,48.38
2022-08-24T10:49:38.215Z,48.05
2022-08-24T10:50:38.166Z,47.56
2022-08-24T10:51:38.193Z,49.34
2022-08-24T10:52:38.166Z,49.54
2022-08-24T10:53:38.109Z,48.15
2022-08-24T10:54:38.136Z,50.63
2022-08-24T10:55:38.086Z,49.24
2022-08-24T10:56:38.103Z,50.23
2022-08-24T10:57:38.056Z,49.12
2022-08-24T10:58:38.046Z,47.74
2022-08-24T10:59:38.029Z,49.62
2022-08-24T11:00:38.023Z,49.42
2022-08-24T11:01:38.167Z,47.93
2022-08-24T11:02:38.206Z,47.83
2022-08-24T11:03:38.355Z,46.33
2022-08-24T11:04:37.954Z,45.23
2022-08-24T11:05:37.971Z,45.34
2022-08-24T11:06:37.975Z,47.81
2022-08-24T11:07:37.914Z,47.52
2022-08-24T11:08:37.923Z,47.12
2022-08-24T11:09:38.221Z,47.49
2022-08-24T11:10:37.894Z,48.28
2022-08-24T11:11:40.587Z,47.69
2022-08-24T11:12:37.878Z,45.31
2022-08-24T11:13:37.862Z,45.81
2022-08-24T11:14:37.863Z,45.81
2022-08-24T11:15:37.873Z,45.39
2022-08-24T11:16:37.854Z,43.41
2022-08-24T11:17:37.821Z,45.59
2022-08-24T11:18:37.772Z,43.80
2022-08-24T11:19:37.884Z,43.12
2022-08-24T11:20:37.751Z,42.40
2022-08-24T11:21:37.761Z,40.13
2022-08-24T11:22:37.742Z,39.43
2022-08-24T11:23:37.710Z,38.55
2022-08-24T11:24:37.728Z,38.04
2022-08-24T11:25:37.800Z,39.12
2022-08-24T11:26:37.700Z,37.54
2022-08-24T11:27:37.734Z,39.91
2022-08-24T11:28:37.653Z,40.31
2022-08-24T11:29:37.670Z,37.94
2022-08-24T11:30:37.622Z,37.92
2022-08-24T11:31:37.639Z,37.72
2022-08-24T11:32:37.605Z,37.43
2022-08-24T11:33:37.594Z,39.11
2022-08-24T11:34:37.646Z,37.43
2022-08-24T11:35:37.574Z,37.62
2022-08-24T11:36:37.554Z,37.72
2022-08-24T11:37:37.610Z,37.23
2022-08-24T11:38:37.531Z,38.61
2022-08-24T11:39:38.565Z,39.20
2022-08-24T11:40:37.511Z,38.81
2022-08-24T11:41:37.504Z,38.21
2022-08-24T11:42:37.488Z,37.60
2022-08-24T11:43:37.528Z,37.60
2022-08-24T11:44:37.535Z,38.10
2022-08-24T11:45:37.492Z,37.51
2022-08-24T11:46:37.504Z,36.71
2022-08-24T11:47:37.429Z,36.52
2022-08-24T11:48:37.485Z,36.71
2022-08-24T11:49:37.419Z,37.39
2022-08-24T11:50:37.423Z,36.11
2022-08-24T11:51:37.370Z,36.70
2022-08-24T11:52:37.370Z,37.39
2022-08-24T11:54:37.346Z,38.77
2022-08-24T11:55:47.395Z,38.08
2022-08-24T11:56:38.364Z,38.77
2022-08-24T11:57:37.348Z,38.28
2022-08-24T11:58:38.348Z,38.65
2022-08-24T11:59:37.300Z,37.96
2022-08-24T12:00:37.257Z,37.87
2022-08-24T12:01:42.880Z,38.26
2022-08-24T12:02:38.401Z,38.75
2022-08-24T12:03:37.266Z,37.66
2022-08-24T12:04:37.270Z,38.65
2022-08-24T12:05:37.295Z,38.56
2022-08-24T12:06:37.225Z,38.16
2022-08-24T12:07:37.224Z,37.66
2022-08-24T12:08:37.165Z,38.54
2022-08-24T12:09:37.215Z,38.73
2022-08-24T12:10:37.281Z,37.85
2022-08-24T12:11:37.172Z,36.86
2022-08-24T12:12:37.119Z,37.43
2022-08-24T12:13:37.133Z,37.53
2022-08-24T12:14:37.098Z,38.62
2022-08-24T12:15:37.174Z,35.66
2022-08-24T12:16:37.219Z,35.76
2022-08-24T12:17:37.053Z,36.15
2022-08-24T12:18:37.059Z,35.56
2022-08-24T12:19:37.033Z,36.25
2022-08-24T12:20:37.061Z,36.65
2022-08-24T12:21:37.054Z,36.43
2022-08-24T12:22:37.039Z,36.23
2022-08-24T12:23:37.033Z,35.74
2022-08-24T12:24:36.990Z,36.43
2022-08-24T12:25:36.996Z,36.23
2022-08-24T12:26:36.996Z,36.22
2022-08-24T12:27:36.972Z,36.02
2022-08-24T12:28:36.914Z,35.33
2022-08-24T12:29:36.902Z,35.72
2022-08-24T12:30:36.902Z,36.02
2022-08-24T12:31:36.987Z,34.94
2022-08-24T12:32:36.893Z,35.92
2022-08-24T12:33:37.669Z,35.53
2022-08-24T12:34:36.831Z,36.10
2022-08-24T12:35:36.892Z,35.41
2022-08-24T12:36:36.968Z,36.69
2022-08-24T12:37:36.832Z,35.21
2022-08-24T12:38:36.823Z,35.90
2022-08-24T12:39:36.841Z,35.59
2022-08-24T12:40:36.820Z,35.88
2022-08-24T12:41:36.779Z,37.26
2022-08-24T12:42:36.780Z,35.47
2022-08-24T12:43:36.769Z,34.89
2022-08-24T12:44:36.739Z,34.30
2022-08-24T12:45:36.783Z,34.78
2022-08-24T12:46:36.738Z,34.69
2022-08-24T12:47:36.674Z,35.26
2022-08-24T12:48:36.699Z,36.34
2022-08-24T12:49:36.660Z,35.85
2022-08-24T12:50:36.649Z,36.03
2022-08-24T12:51:36.657Z,34.66
2022-08-24T12:52:36.621Z,34.06
2022-08-24T12:53:36.669Z,33.77
2022-08-24T12:54:36.677Z,34.85
2022-08-24T12:55:36.628Z,35.91